createdAt,value
2022-12-05T05:03:06.952Z,-91
2022-12-05T05:05:36.918Z,-93
2022-12-05T05:08:05.263Z,-92
2022-12-05T05:10:35.237Z,-91
2022-12-05T05:13:03.319Z,-92
2022-12-05T05:15:31.362Z,-89
2022-12-05T05:17:59.409Z,-89
2022-12-05T05:20:28.801Z,-89
2022-12-05T05:22:58.172Z,-89
2022-12-05T05:25:26.963Z,-90
2022-12-05T05:27:56.694Z,-89
2022-12-05T05:30:25.499Z,-89
2022-12-05T05:32:53.616Z,-89
2022-12-05T05:35:21.691Z,-89
2022-12-05T05:37:51.054Z,-88
2022-12-05T05:40:19.505Z,-88
2022-12-05T05:42:49.057Z,-89
2022-12-05T05:45:17.612Z,-88
2022-12-05T05:47:46.563Z,-89
2022-12-05T05:50:20.915Z,-90
2022-12-05T05:52:51.039Z,-89
2022-12-05T05:55:19.255Z,-91
2022-12-05T05:57:47.705Z,-88
2022-12-05T06:00:16.821Z,-89
2022-12-05T06:02:45.004Z,-88
2022-12-05T06:05:13.193Z,-89
2022-12-05T06:07:41.323Z,-89
2022-12-05T06:10:11.423Z,-88
2022-12-05T06:12:39.460Z,-90
2022-12-05T06:15:09.052Z,-89
2022-12-05T06:17:37.168Z,-89
2022-12-05T06:20:05.788Z,-90
2022-12-05T06:22:34.189Z,-89
2022-12-05T06:25:02.244Z,-90
2022-12-05T06:27:32.478Z,-88
2022-12-05T06:30:14.295Z,-91
2022-12-05T06:32:42.369Z,-89
2022-12-05T06:35:15.767Z,-89
2022-12-05T06:37:44.377Z,-89
2022-12-05T06:40:13.549Z,-91
2022-12-05T06:42:43.004Z,-89
2022-12-05T06:45:11.855Z,-89
2022-12-05T06:47:39.890Z,-89
2022-12-05T06:50:09.584Z,-89
2022-12-05T06:52:37.679Z,-89
2022-12-05T06:55:06.678Z,-89
2022-12-05T06:57:34.732Z,-88
2022-12-05T07:00:19.458Z,-89
2022-12-05T07:02:47.630Z,-89
2022-12-05T07:05:15.678Z,-89
2022-12-05T07:07:43.781Z,-90
2022-12-05T07:10:11.835Z,-90
2022-12-05T07:12:39.933Z,-89
2022-12-05T07:15:10.422Z,-88
2022-12-05T07:17:39.780Z,-89
2022-12-05T07:20:10.341Z,-89
2022-12-05T07:22:38.699Z,-90
2022-12-05T07:25:07.527Z,-90
2022-12-05T07:27:35.664Z,-89
2022-12-05T07:30:03.760Z,-89
2022-12-05T07:32:35.213Z,-89
2022-12-05T07:35:03.226Z,-88
2022-12-05T07:37:31.517Z,-89
2022-12-05T07:39:59.816Z,-89
2022-12-05T07:42:28.057Z,-89
2022-12-05T07:44:56.095Z,-89
2022-12-05T07:47:24.376Z,-90
2022-12-05T07:49:53.842Z,-89
2022-12-05T07:52:21.848Z,-89
2022-12-05T07:54:49.867Z,-87
2022-12-05T07:57:17.946Z,-89
2022-12-05T07:59:45.970Z,-89
2022-12-05T08:02:14.196Z,-90
2022-12-05T08:04:42.275Z,-88
2022-12-05T08:07:12.941Z,-91
2022-12-05T08:09:41.131Z,-89
2022-12-05T08:12:09.310Z,-90
2022-12-05T08:14:37.512Z,-89
2022-12-05T08:17:05.793Z,-89
2022-12-05T08:19:33.978Z,-90
2022-12-05T08:22:02.341Z,-89
2022-12-05T08:24:31.972Z,-89
2022-12-05T08:26:59.979Z,-89
2022-12-05T08:29:28.024Z,-90
2022-12-05T08:31:56.108Z,-90
2022-12-05T08:34:24.341Z,-89
2022-12-05T08:36:52.411Z,-89
2022-12-05T08:39:21.316Z,-89
2022-12-05T08:41:50.694Z,-89
2022-12-05T08:44:19.162Z,-89
2022-12-05T08:46:48.855Z,-89
2022-12-05T08:49:17.483Z,-90
2022-12-05T08:51:45.733Z,-90
2022-12-05T08:54:14.317Z,-90
2022-12-05T08:56:42.574Z,-89
2022-12-05T08:59:12.102Z,-90
2022-12-05T09:01:40.601Z,-91
2022-12-05T09:04:09.340Z,-90
2022-12-05T09:06:39.362Z,-90
2022-12-05T09:09:11.439Z,-89
2022-12-05T09:11:44.045Z,-90
2022-12-05T09:14:13.695Z,-90
2022-12-05T09:16:42.062Z,-90
2022-12-05T09:19:13.761Z,-90
2022-12-05T09:21:42.294Z,-89
2022-12-05T09:24:12.232Z,-89
2022-12-05T09:26:40.729Z,-90
2022-12-05T09:29:15.559Z,-90
2022-12-05T09:31:46.872Z,-90
2022-12-05T09:34:15.860Z,-90
2022-12-05T09:36:44.766Z,-90
2022-12-05T09:39:13.039Z,-90
2022-12-05T09:42:06.077Z,-90
2022-12-05T09:44:44.003Z,-90
2022-12-05T09:47:19.069Z,-89
2022-12-05T09:49:51.087Z,-90
2022-12-05T09:52:26.283Z,-90
2022-12-05T09:54:54.597Z,-89
2022-12-05T09:57:33.490Z,-90
2022-12-05T10:00:03.766Z,-89
2022-12-05T10:02:43.182Z,-90
2022-12-05T10:05:16.378Z,-89
2022-12-05T10:07:51.708Z,-90
2022-12-05T10:10:28.833Z,-90
2022-12-05T10:13:16.908Z,-93
2022-12-05T10:15:47.777Z,-93
2022-12-05T10:18:28.412Z,-92
2022-12-05T10:20:59.981Z,-94
2022-12-05T10:23:59.766Z,-90
2022-12-05T10:26:19.292Z,-92
2022-12-05T10:28:52.232Z,-93
2022-12-05T10:31:23.948Z,-93
2022-12-05T10:33:59.823Z,-93
2022-12-05T10:36:28.259Z,-90
2022-12-05T10:38:57.343Z,-94
2022-12-05T10:41:26.402Z,-94
2022-12-05T10:43:54.645Z,-94
2022-12-05T10:46:27.743Z,-93
2022-12-05T10:48:57.330Z,-94
2022-12-05T10:51:34.203Z,-92
2022-12-05T10:54:16.568Z,-93
2022-12-05T10:56:46.688Z,-93
2022-12-05T10:59:17.187Z,-93
2022-12-05T11:01:49.014Z,-92
2022-12-05T11:04:28.221Z,-93
2022-12-05T11:06:59.399Z,-93
2022-12-05T11:09:29.410Z,-94
2022-12-05T11:12:08.094Z,-93
2022-12-05T11:14:36.592Z,-93
2022-12-05T11:17:08.054Z,-88
2022-12-05T11:19:39.810Z,-89
2022-12-05T11:22:10.072Z,-88
2022-12-05T11:24:40.267Z,-88
2022-12-05T11:27:27.225Z,-88
2022-12-05T11:29:59.147Z,-88
2022-12-05T11:32:29.705Z,-87
2022-12-05T11:35:06.610Z,-86
2022-12-05T11:37:39.166Z,-86
2022-12-05T11:40:16.582Z,-86
2022-12-05T11:43:03.508Z,-88
2022-12-05T11:45:53.865Z,-89
2022-12-05T11:48:48.800Z,-89
2022-12-05T11:51:27.025Z,-89
2022-12-05T11:55:03.823Z,-88
2022-12-05T11:57:36.304Z,-89
2022-12-05T12:00:18.111Z,-90
2022-12-05T12:03:20.110Z,-90
2022-12-05T12:05:58.239Z,-88
2022-12-05T12:08:54.895Z,-88
2022-12-05T12:11:54.979Z,-88
2022-12-05T12:14:29.384Z,-88
2022-12-05T12:17:16.779Z,-88
2022-12-05T12:19:53.535Z,-88
2022-12-05T12:22:41.414Z,-88
2022-12-05T12:25:26.001Z,-88
2022-12-05T12:28:05.388Z,-89
2022-12-05T12:30:45.495Z,-89
2022-12-05T12:33:16.815Z,-90
2022-12-05T12:35:56.697Z,-88
2022-12-05T12:38:50.958Z,-88
2022-12-05T12:41:55.104Z,-88
2022-12-05T12:44:51.335Z,-88
2022-12-05T12:47:28.629Z,-88
2022-12-05T12:50:05.319Z,-90
2022-12-05T12:52:51.619Z,-89
2022-12-05T12:55:24.094Z,-89
2022-12-05T12:58:07.259Z,-89
2022-12-05T13:00:53.471Z,-89
2022-12-05T13:03:24.880Z,-89
2022-12-05T13:05:57.201Z,-89
2022-12-05T13:08:28.700Z,-89
2022-12-05T13:10:58.529Z,-88
2022-12-05T13:13:33.751Z,-89
